sensor_id;sensor_type;location;lat;lon;timestamp;temperature;humidity
35603;DHT22;21725;50.836;4.368;2023-06-22T00:02:38;23.50;90.90
35603;DHT22;21725;50.836;4.368;2023-06-22T00:05:39;23.60;90.50
35603;DHT22;21725;50.836;4.368;2023-06-22T00:08:40;23.70;89.90
35603;DHT22;21725;50.836;4.368;2023-06-22T00:11:41;23.70;89.70
35603;DHT22;21725;50.836;4.368;2023-06-22T00:14:42;23.70;90.20
35603;DHT22;21725;50.836;4.368;2023-06-22T00:17:43;23.50;90.30
35603;DHT22;21725;50.836;4.368;2023-06-22T00:20:43;23.50;90.30
35603;DHT22;21725;50.836;4.368;2023-06-22T00:23:46;23.50;90.60
35603;DHT22;21725;50.836;4.368;2023-06-22T00:26:50;23.40;90.80
35603;DHT22;21725;50.836;4.368;2023-06-22T00:29:51;23.30;91.00
35603;DHT22;21725;50.836;4.368;2023-06-22T00:32:52;23.30;91.10
35603;DHT22;21725;50.836;4.368;2023-06-22T00:35:54;23.50;91.10
35603;DHT22;21725;50.836;4.368;2023-06-22T00:38:55;23.40;91.10
35603;DHT22;21725;50.836;4.368;2023-06-22T00:41:56;23.40;91.20
35603;DHT22;21725;50.836;4.368;2023-06-22T00:44:57;23.40;91.40
35603;DHT22;21725;50.836;4.368;2023-06-22T00:47:59;23.30;91.40
35603;DHT22;21725;50.836;4.368;2023-06-22T00:51:00;23.40;91.40
35603;DHT22;21725;50.836;4.368;2023-06-22T00:54:01;23.40;91.40
35603;DHT22;21725;50.836;4.368;2023-06-22T00:57:02;23.40;91.40
35603;DHT22;21725;50.836;4.368;2023-06-22T01:00:03;23.50;91.30
35603;DHT22;21725;50.836;4.368;2023-06-22T01:03:09;23.50;91.20
35603;DHT22;21725;50.836;4.368;2023-06-22T01:06:15;23.40;91.30
35603;DHT22;21725;50.836;4.368;2023-06-22T01:09:22;23.50;91.30
35603;DHT22;21725;50.836;4.368;2023-06-22T01:12:27;23.40;91.50
35603;DHT22;21725;50.836;4.368;2023-06-22T01:15:45;23.40;91.50
35603;DHT22;21725;50.836;4.368;2023-06-22T01:18:52;23.40;91.60
35603;DHT22;21725;50.836;4.368;2023-06-22T01:21:56;23.40;91.50
35603;DHT22;21725;50.836;4.368;2023-06-22T01:25:13;23.40;91.70
35603;DHT22;21725;50.836;4.368;2023-06-22T01:31:42;23.50;91.40
35603;DHT22;21725;50.836;4.368;2023-06-22T01:34:45;23.40;91.70
35603;DHT22;21725;50.836;4.368;2023-06-22T01:37:47;23.40;91.80
35603;DHT22;21725;50.836;4.368;2023-06-22T01:40:48;23.30;91.80
35603;DHT22;21725;50.836;4.368;2023-06-22T01:43:50;23.20;92.10
35603;DHT22;21725;50.836;4.368;2023-06-22T01:46:52;23.30;92.00
35603;DHT22;21725;50.836;4.368;2023-06-22T01:49:53;23.20;92.30
35603;DHT22;21725;50.836;4.368;2023-06-22T01:52:55;23.10;92.50
35603;DHT22;21725;50.836;4.368;2023-06-22T01:55:56;23.20;92.50
35603;DHT22;21725;50.836;4.368;2023-06-22T01:59:34;23.00;92.50
35603;DHT22;21725;50.836;4.368;2023-06-22T02:02:38;22.90;92.80
35603;DHT22;21725;50.836;4.368;2023-06-22T02:05:49;22.90;93.10
35603;DHT22;21725;50.836;4.368;2023-06-22T02:08:59;22.90;93.00
35603;DHT22;21725;50.836;4.368;2023-06-22T02:12:02;22.90;92.90
35603;DHT22;21725;50.836;4.368;2023-06-22T02:15:05;22.90;93.00
35603;DHT22;21725;50.836;4.368;2023-06-22T02:18:06;22.80;93.20
35603;DHT22;21725;50.836;4.368;2023-06-22T02:21:07;22.80;93.10
35603;DHT22;21725;50.836;4.368;2023-06-22T02:24:08;22.80;93.00
35603;DHT22;21725;50.836;4.368;2023-06-22T02:27:08;22.70;93.10
35603;DHT22;21725;50.836;4.368;2023-06-22T02:30:09;22.60;93.30
35603;DHT22;21725;50.836;4.368;2023-06-22T02:33:10;22.50;93.20
35603;DHT22;21725;50.836;4.368;2023-06-22T02:36:11;22.50;93.10
35603;DHT22;21725;50.836;4.368;2023-06-22T02:39:13;22.40;93.20
35603;DHT22;21725;50.836;4.368;2023-06-22T02:42:14;22.40;93.20
35603;DHT22;21725;50.836;4.368;2023-06-22T02:45:15;22.50;93.10
35603;DHT22;21725;50.836;4.368;2023-06-22T02:48:16;22.50;93.10
35603;DHT22;21725;50.836;4.368;2023-06-22T02:51:17;22.40;93.40
35603;DHT22;21725;50.836;4.368;2023-06-22T02:54:17;22.40;93.40
35603;DHT22;21725;50.836;4.368;2023-06-22T02:57:18;22.30;93.40
35603;DHT22;21725;50.836;4.368;2023-06-22T03:00:19;22.30;93.60
35603;DHT22;21725;50.836;4.368;2023-06-22T03:03:20;22.30;93.60
35603;DHT22;21725;50.836;4.368;2023-06-22T03:06:21;22.30;93.50
35603;DHT22;21725;50.836;4.368;2023-06-22T03:09:28;22.30;93.40
35603;DHT22;21725;50.836;4.368;2023-06-22T03:12:29;22.10;93.70
35603;DHT22;21725;50.836;4.368;2023-06-22T03:15:30;22.10;93.70
35603;DHT22;21725;50.836;4.368;2023-06-22T03:18:31;22.10;93.70
35603;DHT22;21725;50.836;4.368;2023-06-22T03:32:49;22.00;93.70
35603;DHT22;21725;50.836;4.368;2023-06-22T03:35:49;22.00;93.80
35603;DHT22;21725;50.836;4.368;2023-06-22T03:38:51;22.10;93.60
35603;DHT22;21725;50.836;4.368;2023-06-22T03:41:51;22.20;94.00
35603;DHT22;21725;50.836;4.368;2023-06-22T03:44:52;22.10;93.80
35603;DHT22;21725;50.836;4.368;2023-06-22T03:47:53;22.30;93.50
35603;DHT22;21725;50.836;4.368;2023-06-22T03:50:54;22.20;93.60
35603;DHT22;21725;50.836;4.368;2023-06-22T03:53:54;22.20;93.90
35603;DHT22;21725;50.836;4.368;2023-06-22T03:56:57;22.10;94.00
35603;DHT22;21725;50.836;4.368;2023-06-22T03:59:58;22.20;93.90
35603;DHT22;21725;50.836;4.368;2023-06-22T04:02:58;22.20;93.90
35603;DHT22;21725;50.836;4.368;2023-06-22T04:05:59;22.30;93.90
35603;DHT22;21725;50.836;4.368;2023-06-22T04:09:00;22.30;93.80
35603;DHT22;21725;50.836;4.368;2023-06-22T04:12:02;22.30;93.90
35603;DHT22;21725;50.836;4.368;2023-06-22T04:15:03;22.20;94.20
35603;DHT22;21725;50.836;4.368;2023-06-22T04:18:04;22.20;94.30
35603;DHT22;21725;50.836;4.368;2023-06-22T04:21:04;22.20;94.50
35603;DHT22;21725;50.836;4.368;2023-06-22T04:24:05;22.50;94.10
35603;DHT22;21725;50.836;4.368;2023-06-22T04:27:06;23.00;93.50
35603;DHT22;21725;50.836;4.368;2023-06-22T04:30:08;23.10;93.30
35603;DHT22;21725;50.836;4.368;2023-06-22T04:33:09;23.20;93.20
35603;DHT22;21725;50.836;4.368;2023-06-22T04:36:09;23.20;93.30
35603;DHT22;21725;50.836;4.368;2023-06-22T04:39:14;23.10;93.30
35603;DHT22;21725;50.836;4.368;2023-06-22T04:42:15;23.00;93.40
35603;DHT22;21725;50.836;4.368;2023-06-22T04:45:16;22.80;93.70
35603;DHT22;21725;50.836;4.368;2023-06-22T04:48:16;22.80;93.90
35603;DHT22;21725;50.836;4.368;2023-06-22T04:51:17;22.80;94.10
35603;DHT22;21725;50.836;4.368;2023-06-22T04:54:22;22.90;94.10
35603;DHT22;21725;50.836;4.368;2023-06-22T04:57:22;23.10;93.80
35603;DHT22;21725;50.836;4.368;2023-06-22T05:00:31;23.00;93.80
35603;DHT22;21725;50.836;4.368;2023-06-22T05:03:32;23.40;93.50
35603;DHT22;21725;50.836;4.368;2023-06-22T05:06:33;23.60;93.40
35603;DHT22;21725;50.836;4.368;2023-06-22T05:09:34;23.70;93.10
35603;DHT22;21725;50.836;4.368;2023-06-22T05:12:34;23.60;93.40
35603;DHT22;21725;50.836;4.368;2023-06-22T05:15:35;23.60;93.70
35603;DHT22;21725;50.836;4.368;2023-06-22T05:18:40;23.60;94.40
35603;DHT22;21725;50.836;4.368;2023-06-22T05:21:42;23.60;95.10
35603;DHT22;21725;50.836;4.368;2023-06-22T05:24:43;23.50;95.30
35603;DHT22;21725;50.836;4.368;2023-06-22T05:27:43;23.30;95.60
35603;DHT22;21725;50.836;4.368;2023-06-22T05:30:45;23.30;96.40
35603;DHT22;21725;50.836;4.368;2023-06-22T05:33:46;23.30;96.50
35603;DHT22;21725;50.836;4.368;2023-06-22T05:36:47;23.20;96.60
35603;DHT22;21725;50.836;4.368;2023-06-22T05:39:48;23.10;97.00
35603;DHT22;21725;50.836;4.368;2023-06-22T05:42:49;22.90;97.50
35603;DHT22;21725;50.836;4.368;2023-06-22T05:45:49;22.80;98.00
35603;DHT22;21725;50.836;4.368;2023-06-22T05:48:50;22.60;98.60
35603;DHT22;21725;50.836;4.368;2023-06-22T05:51:51;22.50;99.10
35603;DHT22;21725;50.836;4.368;2023-06-22T05:54:51;22.40;99.10
35603;DHT22;21725;50.836;4.368;2023-06-22T05:57:52;22.50;98.50
35603;DHT22;21725;50.836;4.368;2023-06-22T06:00:53;22.40;98.80
35603;DHT22;21725;50.836;4.368;2023-06-22T06:03:54;22.40;99.40
35603;DHT22;21725;50.836;4.368;2023-06-22T06:06:54;22.50;99.30
35603;DHT22;21725;50.836;4.368;2023-06-22T06:09:55;22.50;99.30
35603;DHT22;21725;50.836;4.368;2023-06-22T06:12:56;22.30;99.70
35603;DHT22;21725;50.836;4.368;2023-06-22T06:15:57;22.30;99.90
35603;DHT22;21725;50.836;4.368;2023-06-22T06:18:58;22.20;99.90
35603;DHT22;21725;50.836;4.368;2023-06-22T06:21:58;22.30;99.90
35603;DHT22;21725;50.836;4.368;2023-06-22T06:24:59;22.20;99.90
35603;DHT22;21725;50.836;4.368;2023-06-22T06:28:00;22.10;99.90
35603;DHT22;21725;50.836;4.368;2023-06-22T06:31:01;22.10;99.90
35603;DHT22;21725;50.836;4.368;2023-06-22T06:34:02;22.10;99.90
35603;DHT22;21725;50.836;4.368;2023-06-22T06:37:03;22.10;99.90
35603;DHT22;21725;50.836;4.368;2023-06-22T06:40:05;22.20;99.90
35603;DHT22;21725;50.836;4.368;2023-06-22T06:43:08;22.30;99.90
35603;DHT22;21725;50.836;4.368;2023-06-22T06:46:09;22.40;99.90
35603;DHT22;21725;50.836;4.368;2023-06-22T06:49:10;22.60;99.90
35603;DHT22;21725;50.836;4.368;2023-06-22T06:52:11;22.60;99.90
35603;DHT22;21725;50.836;4.368;2023-06-22T06:55:12;22.60;99.90
35603;DHT22;21725;50.836;4.368;2023-06-22T06:58:13;22.60;99.90
35603;DHT22;21725;50.836;4.368;2023-06-22T07:01:14;22.60;99.90
35603;DHT22;21725;50.836;4.368;2023-06-22T07:04:14;22.60;99.90
35603;DHT22;21725;50.836;4.368;2023-06-22T07:07:16;22.70;99.90
35603;DHT22;21725;50.836;4.368;2023-06-22T07:10:16;22.80;99.90
35603;DHT22;21725;50.836;4.368;2023-06-22T07:13:17;22.80;99.80
35603;DHT22;21725;50.836;4.368;2023-06-22T07:16:18;22.90;99.80
35603;DHT22;21725;50.836;4.368;2023-06-22T07:19:25;22.80;99.90
35603;DHT22;21725;50.836;4.368;2023-06-22T07:22:26;22.80;99.90
35603;DHT22;21725;50.836;4.368;2023-06-22T07:25:27;23.00;99.90
35603;DHT22;21725;50.836;4.368;2023-06-22T07:28:28;23.20;99.50
35603;DHT22;21725;50.836;4.368;2023-06-22T07:31:31;23.40;99.50
35603;DHT22;21725;50.836;4.368;2023-06-22T07:34:32;23.70;98.10
35603;DHT22;21725;50.836;4.368;2023-06-22T07:37:34;23.60;98.70
35603;DHT22;21725;50.836;4.368;2023-06-22T07:40:35;23.60;98.20
35603;DHT22;21725;50.836;4.368;2023-06-22T07:43:36;23.80;97.40
35603;DHT22;21725;50.836;4.368;2023-06-22T07:46:37;23.60;97.60
35603;DHT22;21725;50.836;4.368;2023-06-22T07:49:38;23.50;98.10
35603;DHT22;21725;50.836;4.368;2023-06-22T07:52:39;23.50;97.70
35603;DHT22;21725;50.836;4.368;2023-06-22T07:55:40;23.40;98.30
35603;DHT22;21725;50.836;4.368;2023-06-22T07:58:40;23.40;98.30
35603;DHT22;21725;50.836;4.368;2023-06-22T08:01:42;23.40;97.90
35603;DHT22;21725;50.836;4.368;2023-06-22T08:04:43;23.50;98.10
35603;DHT22;21725;50.836;4.368;2023-06-22T08:07:43;23.60;97.70
35603;DHT22;21725;50.836;4.368;2023-06-22T08:10:45;23.50;97.90
35603;DHT22;21725;50.836;4.368;2023-06-22T08:13:45;23.40;97.80
35603;DHT22;21725;50.836;4.368;2023-06-22T08:16:46;23.30;98.20
35603;DHT22;21725;50.836;4.368;2023-06-22T08:19:47;23.30;98.00
35603;DHT22;21725;50.836;4.368;2023-06-22T08:22:48;23.20;98.40
35603;DHT22;21725;50.836;4.368;2023-06-22T08:25:48;23.10;98.80
35603;DHT22;21725;50.836;4.368;2023-06-22T08:28:50;23.20;98.60
35603;DHT22;21725;50.836;4.368;2023-06-22T08:31:51;23.20;98.40
35603;DHT22;21725;50.836;4.368;2023-06-22T08:34:53;23.10;98.50
35603;DHT22;21725;50.836;4.368;2023-06-22T08:37:54;22.90;98.90
35603;DHT22;21725;50.836;4.368;2023-06-22T08:40:57;22.80;99.40
35603;DHT22;21725;50.836;4.368;2023-06-22T08:43:58;22.80;99.40
35603;DHT22;21725;50.836;4.368;2023-06-22T08:46:58;22.90;99.10
35603;DHT22;21725;50.836;4.368;2023-06-22T08:49:59;23.00;99.10
35603;DHT22;21725;50.836;4.368;2023-06-22T08:53:02;22.90;99.00
35603;DHT22;21725;50.836;4.368;2023-06-22T08:56:03;22.70;99.30
35603;DHT22;21725;50.836;4.368;2023-06-22T08:59:04;22.80;99.30
35603;DHT22;21725;50.836;4.368;2023-06-22T09:02:08;22.70;99.40
35603;DHT22;21725;50.836;4.368;2023-06-22T09:05:09;22.70;99.70
35603;DHT22;21725;50.836;4.368;2023-06-22T09:08:11;22.80;99.60
35603;DHT22;21725;50.836;4.368;2023-06-22T09:11:12;22.90;99.20
35603;DHT22;21725;50.836;4.368;2023-06-22T09:14:12;23.10;98.60
35603;DHT22;21725;50.836;4.368;2023-06-22T09:17:13;23.10;98.90
35603;DHT22;21725;50.836;4.368;2023-06-22T09:20:14;23.10;98.40
35603;DHT22;21725;50.836;4.368;2023-06-22T09:23:16;23.20;98.10
35603;DHT22;21725;50.836;4.368;2023-06-22T09:26:20;23.20;98.20
35603;DHT22;21725;50.836;4.368;2023-06-22T09:29:21;23.10;98.60
35603;DHT22;21725;50.836;4.368;2023-06-22T09:32:22;23.00;99.20
35603;DHT22;21725;50.836;4.368;2023-06-22T09:35:22;23.00;99.10
35603;DHT22;21725;50.836;4.368;2023-06-22T09:38:23;22.90;99.40
35603;DHT22;21725;50.836;4.368;2023-06-22T09:41:24;22.80;99.90
35603;DHT22;21725;50.836;4.368;2023-06-22T09:44:25;22.80;99.90
35603;DHT22;21725;50.836;4.368;2023-06-22T09:47:26;23.00;99.90
35603;DHT22;21725;50.836;4.368;2023-06-22T09:50:26;22.80;99.90
35603;DHT22;21725;50.836;4.368;2023-06-22T09:53:27;22.40;99.90
35603;DHT22;21725;50.836;4.368;2023-06-22T09:56:29;22.00;99.90
35603;DHT22;21725;50.836;4.368;2023-06-22T09:59:30;21.50;99.90
35603;DHT22;21725;50.836;4.368;2023-06-22T10:02:31;21.20;99.90
35603;DHT22;21725;50.836;4.368;2023-06-22T10:05:32;20.80;99.90
35603;DHT22;21725;50.836;4.368;2023-06-22T10:08:34;20.40;99.90
35603;DHT22;21725;50.836;4.368;2023-06-22T10:11:34;20.10;99.90
35603;DHT22;21725;50.836;4.368;2023-06-22T10:14:36;19.90;99.90
35603;DHT22;21725;50.836;4.368;2023-06-22T10:17:36;19.80;99.90
35603;DHT22;21725;50.836;4.368;2023-06-22T10:20:37;19.70;99.90
35603;DHT22;21725;50.836;4.368;2023-06-22T10:23:38;19.70;99.90
35603;DHT22;21725;50.836;4.368;2023-06-22T10:26:39;19.80;99.90
35603;DHT22;21725;50.836;4.368;2023-06-22T10:29:40;19.60;99.90
35603;DHT22;21725;50.836;4.368;2023-06-22T10:32:42;19.60;99.90
35603;DHT22;21725;50.836;4.368;2023-06-22T10:35:43;19.30;99.90
35603;DHT22;21725;50.836;4.368;2023-06-22T10:38:44;19.20;99.90
35603;DHT22;21725;50.836;4.368;2023-06-22T10:41:46;19.10;99.90
35603;DHT22;21725;50.836;4.368;2023-06-22T10:44:46;19.10;99.90
35603;DHT22;21725;50.836;4.368;2023-06-22T10:47:47;19.10;99.90
35603;DHT22;21725;50.836;4.368;2023-06-22T10:50:50;19.10;99.90
35603;DHT22;21725;50.836;4.368;2023-06-22T10:53:51;19.00;99.90
35603;DHT22;21725;50.836;4.368;2023-06-22T10:56:52;19.00;99.90
35603;DHT22;21725;50.836;4.368;2023-06-22T10:59:53;19.00;99.90
35603;DHT22;21725;50.836;4.368;2023-06-22T11:02:53;19.10;99.90
35603;DHT22;21725;50.836;4.368;2023-06-22T11:05:54;19.10;99.90
35603;DHT22;21725;50.836;4.368;2023-06-22T11:08:55;19.20;99.90
35603;DHT22;21725;50.836;4.368;2023-06-22T11:11:56;19.30;99.90
35603;DHT22;21725;50.836;4.368;2023-06-22T11:14:56;19.40;99.90
35603;DHT22;21725;50.836;4.368;2023-06-22T11:18:00;19.50;99.90
35603;DHT22;21725;50.836;4.368;2023-06-22T11:21:01;19.40;99.90
35603;DHT22;21725;50.836;4.368;2023-06-22T11:24:02;19.70;99.90
35603;DHT22;21725;50.836;4.368;2023-06-22T11:27:03;19.70;99.90
35603;DHT22;21725;50.836;4.368;2023-06-22T11:30:04;19.80;99.90
35603;DHT22;21725;50.836;4.368;2023-06-22T11:33:05;19.90;99.90
35603;DHT22;21725;50.836;4.368;2023-06-22T11:36:06;19.90;99.90
35603;DHT22;21725;50.836;4.368;2023-06-22T11:39:08;19.70;99.90
35603;DHT22;21725;50.836;4.368;2023-06-22T11:42:10;19.60;99.90
35603;DHT22;21725;50.836;4.368;2023-06-22T11:45:11;19.50;99.90
35603;DHT22;21725;50.836;4.368;2023-06-22T11:48:12;19.50;99.90
35603;DHT22;21725;50.836;4.368;2023-06-22T11:51:13;19.40;99.90
35603;DHT22;21725;50.836;4.368;2023-06-22T11:54:14;19.40;99.90
35603;DHT22;21725;50.836;4.368;2023-06-22T11:57:15;19.40;99.90
35603;DHT22;21725;50.836;4.368;2023-06-22T12:00:16;19.30;99.90
35603;DHT22;21725;50.836;4.368;2023-06-22T12:03:18;19.30;99.90
35603;DHT22;21725;50.836;4.368;2023-06-22T12:06:19;19.40;99.90
35603;DHT22;21725;50.836;4.368;2023-06-22T12:09:20;19.40;99.90
35603;DHT22;21725;50.836;4.368;2023-06-22T12:12:20;19.40;99.90
35603;DHT22;21725;50.836;4.368;2023-06-22T12:15:21;19.40;99.90
35603;DHT22;21725;50.836;4.368;2023-06-22T12:18:22;19.30;99.90
35603;DHT22;21725;50.836;4.368;2023-06-22T12:21:23;19.30;99.90
35603;DHT22;21725;50.836;4.368;2023-06-22T12:24:23;19.30;99.90
35603;DHT22;21725;50.836;4.368;2023-06-22T12:27:25;19.20;99.90
35603;DHT22;21725;50.836;4.368;2023-06-22T12:30:26;19.20;99.90
35603;DHT22;21725;50.836;4.368;2023-06-22T12:33:26;19.10;99.90
35603;DHT22;21725;50.836;4.368;2023-06-22T12:36:27;19.10;99.90
35603;DHT22;21725;50.836;4.368;2023-06-22T12:39:28;19.20;99.90
35603;DHT22;21725;50.836;4.368;2023-06-22T12:42:29;19.20;99.90
35603;DHT22;21725;50.836;4.368;2023-06-22T12:45:30;19.10;99.90
35603;DHT22;21725;50.836;4.368;2023-06-22T12:48:33;19.10;99.90
35603;DHT22;21725;50.836;4.368;2023-06-22T12:51:42;19.10;99.90
35603;DHT22;21725;50.836;4.368;2023-06-22T12:54:43;19.20;99.90
35603;DHT22;21725;50.836;4.368;2023-06-22T12:57:44;19.20;99.90
35603;DHT22;21725;50.836;4.368;2023-06-22T13:00:45;19.20;99.90
35603;DHT22;21725;50.836;4.368;2023-06-22T13:03:45;19.30;99.90
35603;DHT22;21725;50.836;4.368;2023-06-22T13:06:46;19.40;99.90
35603;DHT22;21725;50.836;4.368;2023-06-22T13:09:48;19.50;99.90
35603;DHT22;21725;50.836;4.368;2023-06-22T13:12:51;19.60;99.90
35603;DHT22;21725;50.836;4.368;2023-06-22T13:15:55;19.60;99.90
35603;DHT22;21725;50.836;4.368;2023-06-22T13:18:56;19.60;99.90
35603;DHT22;21725;50.836;4.368;2023-06-22T13:21:56;19.60;99.90
35603;DHT22;21725;50.836;4.368;2023-06-22T13:24:58;19.70;99.90
35603;DHT22;21725;50.836;4.368;2023-06-22T13:27:58;19.60;99.90
35603;DHT22;21725;50.836;4.368;2023-06-22T13:30:59;19.60;99.90
35603;DHT22;21725;50.836;4.368;2023-06-22T13:34:00;19.60;99.90
35603;DHT22;21725;50.836;4.368;2023-06-22T13:37:01;19.70;99.90
35603;DHT22;21725;50.836;4.368;2023-06-22T13:40:01;19.70;99.90
35603;DHT22;21725;50.836;4.368;2023-06-22T13:43:05;19.70;99.90
35603;DHT22;21725;50.836;4.368;2023-06-22T13:46:07;19.60;99.90
35603;DHT22;21725;50.836;4.368;2023-06-22T13:49:08;19.60;99.90
35603;DHT22;21725;50.836;4.368;2023-06-22T13:52:09;19.50;99.90
35603;DHT22;21725;50.836;4.368;2023-06-22T13:55:11;19.40;99.90
35603;DHT22;21725;50.836;4.368;2023-06-22T13:58:14;19.30;99.90
35603;DHT22;21725;50.836;4.368;2023-06-22T14:01:15;19.40;99.90
35603;DHT22;21725;50.836;4.368;2023-06-22T14:04:16;19.30;99.90
35603;DHT22;21725;50.836;4.368;2023-06-22T14:07:16;19.40;99.90
35603;DHT22;21725;50.836;4.368;2023-06-22T14:10:17;19.40;99.90
35603;DHT22;21725;50.836;4.368;2023-06-22T14:13:18;19.40;99.90
35603;DHT22;21725;50.836;4.368;2023-06-22T14:16:19;19.40;99.90
35603;DHT22;21725;50.836;4.368;2023-06-22T14:19:19;19.40;99.90
35603;DHT22;21725;50.836;4.368;2023-06-22T14:22:21;19.40;99.90
35603;DHT22;21725;50.836;4.368;2023-06-22T14:25:22;19.30;99.90
35603;DHT22;21725;50.836;4.368;2023-06-22T14:28:22;19.40;99.90
35603;DHT22;21725;50.836;4.368;2023-06-22T14:31:23;19.40;99.90
35603;DHT22;21725;50.836;4.368;2023-06-22T14:34:24;19.50;99.90
35603;DHT22;21725;50.836;4.368;2023-06-22T14:37:25;19.60;99.90
35603;DHT22;21725;50.836;4.368;2023-06-22T14:40:25;19.50;99.90
35603;DHT22;21725;50.836;4.368;2023-06-22T14:43:26;19.40;99.90
35603;DHT22;21725;50.836;4.368;2023-06-22T14:46:27;19.30;99.90
35603;DHT22;21725;50.836;4.368;2023-06-22T14:49:27;19.30;99.90
35603;DHT22;21725;50.836;4.368;2023-06-22T14:52:28;19.30;99.90
35603;DHT22;21725;50.836;4.368;2023-06-22T14:55:30;19.40;99.90
35603;DHT22;21725;50.836;4.368;2023-06-22T14:58:32;19.50;99.90
35603;DHT22;21725;50.836;4.368;2023-06-22T15:01:39;19.50;99.90
35603;DHT22;21725;50.836;4.368;2023-06-22T15:04:40;19.10;99.90
35603;DHT22;21725;50.836;4.368;2023-06-22T15:07:41;19.50;99.90
35603;DHT22;21725;50.836;4.368;2023-06-22T15:10:42;19.50;99.90
35603;DHT22;21725;50.836;4.368;2023-06-22T15:13:42;19.60;99.90
35603;DHT22;21725;50.836;4.368;2023-06-22T15:16:43;19.60;99.90
35603;DHT22;21725;50.836;4.368;2023-06-22T15:19:44;19.50;99.90
35603;DHT22;21725;50.836;4.368;2023-06-22T15:22:45;19.60;99.90
35603;DHT22;21725;50.836;4.368;2023-06-22T15:25:46;19.60;99.90
35603;DHT22;21725;50.836;4.368;2023-06-22T15:28:47;19.70;99.90
35603;DHT22;21725;50.836;4.368;2023-06-22T15:31:48;19.80;99.90
35603;DHT22;21725;50.836;4.368;2023-06-22T15:34:49;19.90;99.90
35603;DHT22;21725;50.836;4.368;2023-06-22T15:37:54;20.00;99.90
35603;DHT22;21725;50.836;4.368;2023-06-22T15:40:54;20.00;99.90
35603;DHT22;21725;50.836;4.368;2023-06-22T15:43:55;20.10;99.90
35603;DHT22;21725;50.836;4.368;2023-06-22T15:46:56;20.10;99.90
35603;DHT22;21725;50.836;4.368;2023-06-22T15:49:57;20.10;99.90
35603;DHT22;21725;50.836;4.368;2023-06-22T15:52:58;20.20;99.90
35603;DHT22;21725;50.836;4.368;2023-06-22T15:55:58;20.30;99.90
35603;DHT22;21725;50.836;4.368;2023-06-22T15:58:59;20.30;99.90
35603;DHT22;21725;50.836;4.368;2023-06-22T16:02:00;20.30;99.90
35603;DHT22;21725;50.836;4.368;2023-06-22T16:05:01;20.40;99.90
35603;DHT22;21725;50.836;4.368;2023-06-22T16:08:02;20.40;99.90
35603;DHT22;21725;50.836;4.368;2023-06-22T16:11:03;20.60;99.90
35603;DHT22;21725;50.836;4.368;2023-06-22T16:14:03;20.80;99.90
35603;DHT22;21725;50.836;4.368;2023-06-22T16:28:36;21.30;99.90
35603;DHT22;21725;50.836;4.368;2023-06-22T16:31:37;21.40;99.90
35603;DHT22;21725;50.836;4.368;2023-06-22T16:34:38;21.20;99.90
35603;DHT22;21725;50.836;4.368;2023-06-22T16:37:38;21.00;99.90
35603;DHT22;21725;50.836;4.368;2023-06-22T16:40:39;21.00;99.90
35603;DHT22;21725;50.836;4.368;2023-06-22T16:43:40;21.10;99.90
35603;DHT22;21725;50.836;4.368;2023-06-22T16:46:41;21.20;99.90
35603;DHT22;21725;50.836;4.368;2023-06-22T16:49:41;21.30;99.90
35603;DHT22;21725;50.836;4.368;2023-06-22T16:52:42;21.50;99.90
35603;DHT22;21725;50.836;4.368;2023-06-22T16:55:49;21.60;99.90
35603;DHT22;21725;50.836;4.368;2023-06-22T16:58:52;21.70;99.90
35603;DHT22;21725;50.836;4.368;2023-06-22T17:01:54;21.90;99.90
35603;DHT22;21725;50.836;4.368;2023-06-22T17:04:55;21.90;99.90
35603;DHT22;21725;50.836;4.368;2023-06-22T17:07:59;21.80;99.90
35603;DHT22;21725;50.836;4.368;2023-06-22T17:11:01;21.80;99.90
35603;DHT22;21725;50.836;4.368;2023-06-22T17:14:02;22.00;99.90
35603;DHT22;21725;50.836;4.368;2023-06-22T17:17:03;21.90;99.90
35603;DHT22;21725;50.836;4.368;2023-06-22T17:20:05;22.10;99.90
35603;DHT22;21725;50.836;4.368;2023-06-22T17:23:07;22.10;99.90
35603;DHT22;21725;50.836;4.368;2023-06-22T17:26:08;21.90;99.90
35603;DHT22;21725;50.836;4.368;2023-06-22T17:29:09;22.10;99.90
35603;DHT22;21725;50.836;4.368;2023-06-22T17:32:10;22.30;99.90
35603;DHT22;21725;50.836;4.368;2023-06-22T17:35:11;22.30;99.90
35603;DHT22;21725;50.836;4.368;2023-06-22T17:38:20;22.40;99.90
35603;DHT22;21725;50.836;4.368;2023-06-22T17:41:21;22.40;99.90
35603;DHT22;21725;50.836;4.368;2023-06-22T17:47:24;22.50;99.90
35603;DHT22;21725;50.836;4.368;2023-06-22T17:50:25;22.40;99.90
35603;DHT22;21725;50.836;4.368;2023-06-22T17:53:26;22.30;99.90
35603;DHT22;21725;50.836;4.368;2023-06-22T17:56:28;22.50;99.90
35603;DHT22;21725;50.836;4.368;2023-06-22T17:59:29;22.50;99.90
35603;DHT22;21725;50.836;4.368;2023-06-22T18:02:30;22.60;99.90
35603;DHT22;21725;50.836;4.368;2023-06-22T18:05:35;22.50;99.90
35603;DHT22;21725;50.836;4.368;2023-06-22T18:08:37;22.50;99.90
35603;DHT22;21725;50.836;4.368;2023-06-22T18:11:46;22.60;99.90
35603;DHT22;21725;50.836;4.368;2023-06-22T18:14:47;22.60;99.90
35603;DHT22;21725;50.836;4.368;2023-06-22T18:17:50;22.50;99.90
35603;DHT22;21725;50.836;4.368;2023-06-22T18:20:51;22.60;99.90
35603;DHT22;21725;50.836;4.368;2023-06-22T18:23:53;22.70;99.90
35603;DHT22;21725;50.836;4.368;2023-06-22T18:26:55;22.60;99.90
35603;DHT22;21725;50.836;4.368;2023-06-22T18:29:57;22.60;99.90
35603;DHT22;21725;50.836;4.368;2023-06-22T18:32:58;22.70;99.90
35603;DHT22;21725;50.836;4.368;2023-06-22T18:36:01;22.70;99.90
35603;DHT22;21725;50.836;4.368;2023-06-22T18:39:04;22.60;99.90
35603;DHT22;21725;50.836;4.368;2023-06-22T18:42:09;22.80;99.90
35603;DHT22;21725;50.836;4.368;2023-06-22T18:45:26;22.90;99.90
35603;DHT22;21725;50.836;4.368;2023-06-22T18:48:27;22.80;99.90
35603;DHT22;21725;50.836;4.368;2023-06-22T18:51:28;22.80;99.90
35603;DHT22;21725;50.836;4.368;2023-06-22T18:54:36;22.90;99.90
35603;DHT22;21725;50.836;4.368;2023-06-22T18:57:39;22.80;99.90
35603;DHT22;21725;50.836;4.368;2023-06-22T19:00:39;22.70;99.90
35603;DHT22;21725;50.836;4.368;2023-06-22T19:03:40;22.80;99.90
35603;DHT22;21725;50.836;4.368;2023-06-22T19:06:56;22.80;99.90
35603;DHT22;21725;50.836;4.368;2023-06-22T19:10:22;22.90;99.90
35603;DHT22;21725;50.836;4.368;2023-06-22T19:13:27;22.80;99.90
35603;DHT22;21725;50.836;4.368;2023-06-22T19:16:29;22.80;99.90
35603;DHT22;21725;50.836;4.368;2023-06-22T19:19:34;22.90;99.90
35603;DHT22;21725;50.836;4.368;2023-06-22T19:22:57;23.00;99.90
35603;DHT22;21725;50.836;4.368;2023-06-22T19:25:59;22.80;99.90
35603;DHT22;21725;50.836;4.368;2023-06-22T19:29:00;22.90;99.90
35603;DHT22;21725;50.836;4.368;2023-06-22T19:32:02;22.80;99.90
35603;DHT22;21725;50.836;4.368;2023-06-22T19:35:03;22.70;99.90
35603;DHT22;21725;50.836;4.368;2023-06-22T19:38:07;22.70;99.90